Js Chukar — 9HA4214 — position and weather

sailwx.info

Track history (hours):
 
Tides and Currents Weather Stations Pressure Air Temp Water Temp Dewpoint Dewpoint Depression Visibility Wind Speed Wind Dir Waves Ship Positions

Js Chukar

Last reported at 2018-Jun-19 07:15 UTC. Time now 2018-Jun-19 14:00 UTC.
Position N 46°01' W 004°50'.

Length 100 m; draft 6.5 m.

Type: Ship. MMSI: 249362000.

Date/timePositionNaut miles runAvg speedWind from/ knotsBaromVisibWave heightAir tempDewpointWater temp
2018-Jun-19 07:15N 46°01' W 004°50'1311.7
2018-Jun-19 06:10N 46°08' W 004°35'311.7
2018-Jun-19 05:53N 46°09' W 004°31'411.4
2018-Jun-19 05:30N 46°12' W 004°26'611.4
2018-Jun-19 04:59N 46°15' W 004°19'611.4
2018-Jun-19 04:28N 46°19' W 004°12'511.2
2018-Jun-19 04:01N 46°22' W 004°06'611.3
2018-Jun-19 03:30N 46°25' W 003°59'611.4
2018-Jun-19 03:00N 46°28' W 003°52'611.4
2018-Jun-19 02:30N 46°31' W 003°45'611.7
2018-Jun-19 02:00N 46°35' W 003°39'611.6
2018-Jun-19 01:29N 46°38' W 003°31'611.8
2018-Jun-19 00:59N 46°41' W 003°23'612.4
2018-Jun-19 00:30N 46°44' W 003°16'612.4
2018-Jun-19 00:00N 46°48' W 003°09'612.4
2018-Jun-18 23:29N 46°51' W 003°01'612.7
2018-Jun-18 22:59N 46°55' W 002°53'712.4
2018-Jun-18 22:27N 46°58' W 002°45'512.3
2018-Jun-18 22:00N 47°01' W 002°39'611.8
2018-Jun-18 21:30N 47°03' W 002°31'611.6
2018-Jun-18 21:00N 47°06' W 002°23'510.8
2018-Jun-18 20:30N 47°10' W 002°18'612.3
2018-Jun-18 20:00N 47°15' W 002°13'7 0.2
2018-Jun-17 07:18N 47°18' W 002°04'0 0.0
2018-Jun-17 07:00N 47°18' W 002°04'3 5.0
2018-Jun-17 06:30N 47°18' W 002°08'510.9
2018-Jun-17 06:00N 47°15' W 002°14'612.7
2018-Jun-17 05:30N 47°09' W 002°19'4 8.1
2018-Jun-17 05:01N 47°07' W 002°24'2 3.5
2018-Jun-17 04:30N 47°07' W 002°27'0 0.0
2018-Jun-17 04:00N 47°07' W 002°27'0 0.0
2018-Jun-17 03:29N 47°07' W 002°27'0 0.0
2018-Jun-17 02:59N 47°07' W 002°27'0 0.0
2018-Jun-17 02:29N 47°07' W 002°27'0 0.1
2018-Jun-17 01:59N 47°07' W 002°27'0 0.0
2018-Jun-17 01:29N 47°07' W 002°27'0 0.1
2018-Jun-17 00:59N 47°07' W 002°27'0 0.2
2018-Jun-17 00:07N 47°07' W 002°27'0 0.1
2018-Jun-16 23:58N 47°07' W 002°27'0 0.1
2018-Jun-16 23:28N 47°07' W 002°27'0 0.1
2018-Jun-16 22:58N 47°07' W 002°27'0 0.0
2018-Jun-16 22:28N 47°07' W 002°27'0 0.0
2018-Jun-16 22:00N 47°07' W 002°27'0 0.2
2018-Jun-16 21:20N 47°07' W 002°27'0 0.0
2018-Jun-16 20:44N 47°07' W 002°27'0 0.0
2018-Jun-16 20:14N 47°07' W 002°27'0 0.0
2018-Jun-16 19:44N 47°07' W 002°27'0 0.1
2018-Jun-16 19:14N 47°07' W 002°27'0 0.0
2018-Jun-16 18:59N 47°07' W 002°27'0 0.1
2018-Jun-16 18:29N 47°07' W 002°27'0 0.1
2018-Jun-16 17:59N 47°07' W 002°27'0 0.0
2018-Jun-16 17:29N 47°07' W 002°27'0 0.0
2018-Jun-16 16:59N 47°07' W 002°27'0 0.0
2018-Jun-16 16:29N 47°07' W 002°27'0 0.0
2018-Jun-16 15:59N 47°07' W 002°27'0 0.0
2018-Jun-16 15:29N 47°07' W 002°27'0 0.1
2018-Jun-16 14:59N 47°07' W 002°27'0 0.0
2018-Jun-16 14:29N 47°07' W 002°27'0 0.0
2018-Jun-16 13:59N 47°07' W 002°27'0 0.0
2018-Jun-16 13:29N 47°07' W 002°27'0 0.1
2018-Jun-16 12:56N 47°07' W 002°27'0 0.1
2018-Jun-16 12:29N 47°07' W 002°27'0 0.1
2018-Jun-16 11:59N 47°07' W 002°27'0 0.1
2018-Jun-16 11:29N 47°07' W 002°27'0 0.0
2018-Jun-16 10:59N 47°07' W 002°27'0 0.0
2018-Jun-16 10:26N 47°07' W 002°27'0 0.0
2018-Jun-16 09:56N 47°07' W 002°27'0 0.1
2018-Jun-16 09:29N 47°07' W 002°27'0 0.0
2018-Jun-16 08:59N 47°07' W 002°27'0 0.1
2018-Jun-16 08:29N 47°07' W 002°27'0 0.0
2018-Jun-16 07:59N 47°07' W 002°27'0 0.1
2018-Jun-16 07:26N 47°07' W 002°27'2 5.6
2018-Jun-16 07:00N 47°08' W 002°24'510.5
2018-Jun-16 06:30N 47°11' W 002°18'713.3
2018-Jun-16 06:00N 47°16' W 002°11'5 9.4
2018-Jun-16 05:30N 47°18' W 002°05'1 1.8
2018-Jun-16 05:00N 47°18' W 002°04'0 0.0
2018-Jun-16 04:27N 47°18' W 002°04'0 0.0
2018-Jun-16 04:00N 47°18' W 002°04'0 0.0
2018-Jun-16 03:29N 47°18' W 002°04'0 0.0
2018-Jun-16 02:59N 47°18' W 002°04'0 0.0
2018-Jun-15 06:04N 47°18' W 002°04'0 0.0
2018-Jun-15 06:00N 47°18' W 002°04'0 0.9
2018-Jun-15 05:31N 47°18' W 002°05'4 7.8
2018-Jun-15 05:01N 47°17' W 002°10'611.5
2018-Jun-15 04:31N 47°13' W 002°16'511.0
2018-Jun-15 04:01N 47°08' W 002°20'2 4.1
2018-Jun-15 03:31N 47°08' W 002°23'2 3.0
2018-Jun-15 02:58N 47°07' W 002°25'0 0.1
2018-Jun-15 02:27N 47°07' W 002°25'0 0.1
2018-Jun-15 02:00N 47°07' W 002°25'0 0.0
2018-Jun-15 01:29N 47°07' W 002°25'0 0.0
2018-Jun-15 00:59N 47°07' W 002°25'0 0.0
2018-Jun-15 00:26N 47°07' W 002°25'0 0.0
2018-Jun-14 23:59N 47°07' W 002°25'0 0.0
2018-Jun-14 23:29N 47°07' W 002°25'0 0.0
2018-Jun-14 22:59N 47°07' W 002°25'0 0.2
2018-Jun-14 22:29N 47°07' W 002°25'0 0.1
2018-Jun-14 21:59N 47°07' W 002°25'0 0.0
2018-Jun-14 21:29N 47°07' W 002°25'0 0.0
2018-Jun-14 20:59N 47°07' W 002°25'0 0.0
2018-Jun-14 20:29N 47°07' W 002°25'0 0.0
2018-Jun-14 19:56N 47°07' W 002°25'0 0.1
2018-Jun-14 19:29N 47°07' W 002°25'0 0.0
2018-Jun-14 18:59N 47°07' W 002°25'0 0.0
2018-Jun-14 18:22N 47°07' W 002°25'0 0.1
2018-Jun-14 18:00N 47°07' W 002°25'0 0.0
2018-Jun-14 17:30N 47°07' W 002°25'0 0.1
2018-Jun-14 17:00N 47°07' W 002°25'0 0.0
2018-Jun-14 16:30N 47°07' W 002°25'0 0.0
2018-Jun-14 16:00N 47°07' W 002°25'0 0.0
2018-Jun-14 15:29N 47°07' W 002°25'0 0.0
2018-Jun-14 14:53N 47°07' W 002°25'0 0.0
2018-Jun-14 14:28N 47°07' W 002°25'0 0.0
2018-Jun-14 13:58N 47°07' W 002°25'0 0.0
2018-Jun-14 13:28N 47°07' W 002°25'0 0.0
2018-Jun-14 12:58N 47°07' W 002°25'0 0.0
2018-Jun-14 12:28N 47°07' W 002°25'0 0.0
2018-Jun-14 11:58N 47°07' W 002°25'0 0.0
2018-Jun-14 11:30N 47°07' W 002°25'0 0.0
2018-Jun-14 10:51N 47°07' W 002°25'0 0.0
2018-Jun-14 10:24N 47°07' W 002°25'0 0.2
2018-Jun-14 09:47N 47°07' W 002°25'0 0.1
2018-Jun-14 09:20N 47°07' W 002°25'0 0.1
2018-Jun-14 08:59N 47°07' W 002°25'0 0.0
2018-Jun-14 08:22N 47°07' W 002°25'0 0.0
2018-Jun-14 07:58N 47°07' W 002°25'0 0.0
2018-Jun-14 07:28N 47°07' W 002°25'0 0.0
2018-Jun-14 06:58N 47°07' W 002°25'0 0.0
2018-Jun-14 06:28N 47°07' W 002°25'0 0.1
2018-Jun-14 05:58N 47°07' W 002°25'0 0.1
2018-Jun-14 05:28N 47°07' W 002°25'0 0.1
2018-Jun-14 04:58N 47°07' W 002°25'0 0.0
2018-Jun-14 04:30N 47°07' W 002°25'0 0.1
2018-Jun-14 04:00N 47°07' W 002°25'0 0.0
2018-Jun-14 03:30N 47°07' W 002°25'0 0.0
2018-Jun-14 02:57N 47°07' W 002°25'0 0.0
2018-Jun-14 02:30N 47°07' W 002°25'0 0.0
2018-Jun-14 02:00N 47°07' W 002°25'0 0.0
2018-Jun-14 01:30N 47°07' W 002°25'0 0.0
2018-Jun-14 01:00N 47°07' W 002°25'0 0.0
2018-Jun-14 00:29N 47°07' W 002°25'0 0.0
2018-Jun-13 23:59N 47°07' W 002°25'0 0.0
2018-Jun-13 23:29N 47°07' W 002°25'0 0.0
2018-Jun-13 22:59N 47°07' W 002°25'0 0.0
2018-Jun-13 22:28N 47°07' W 002°25'0 0.0
2018-Jun-13 21:58N 47°07' W 002°25'0 0.2
2018-Jun-13 21:29N 47°07' W 002°25'0 0.0
2018-Jun-13 21:00N 47°07' W 002°25'0 0.0
2018-Jun-13 20:30N 47°07' W 002°25'0 0.0
2018-Jun-13 20:00N 47°07' W 002°25'0 0.0
2018-Jun-13 19:24N 47°07' W 002°25'0 0.0
2018-Jun-13 19:00N 47°07' W 002°25'0 0.1
2018-Jun-13 18:24N 47°07' W 002°25'0 0.1
2018-Jun-13 18:00N 47°07' W 002°25'0 0.0
2018-Jun-13 17:21N 47°07' W 002°25'0 0.0
2018-Jun-13 16:57N 47°07' W 002°25'0 0.0
2018-Jun-13 16:24N 47°07' W 002°25'0 0.0
2018-Jun-13 15:54N 47°07' W 002°25'0 0.0
2018-Jun-13 15:27N 47°07' W 002°25'0 0.0
2018-Jun-13 15:00N 47°07' W 002°25'0 0.0
2018-Jun-13 14:28N 47°07' W 002°25'0 0.0
2018-Jun-13 13:10N 47°07' W 002°25'0 0.0
2018-Jun-13 12:41N 47°07' W 002°25'0 0.0
2018-Jun-13 10:41N 47°07' W 002°25'0 0.0
2018-Jun-13 10:14N 47°07' W 002°25'0 0.1
2018-Jun-13 09:56N 47°07' W 002°25'0 0.1
2018-Jun-13 09:29N 47°07' W 002°25'0 0.1
2018-Jun-13 08:59N 47°07' W 002°25'0 0.0
2018-Jun-13 08:25N 47°07' W 002°25'0 0.0
2018-Jun-13 07:57N 47°07' W 002°25'0 0.0
2018-Jun-13 07:24N 47°07' W 002°25'0 0.0
2018-Jun-13 07:00N 47°07' W 002°25'0 0.0
2018-Jun-13 06:24N 47°07' W 002°25'0 0.0
2018-Jun-13 06:00N 47°07' W 002°25'0 0.0
2018-Jun-13 05:29N 47°07' W 002°25'0 0.0
2018-Jun-13 04:55N 47°07' W 002°25'0 0.0
2018-Jun-13 04:30N 47°07' W 002°25'0 0.0
2018-Jun-13 03:57N 47°07' W 002°25'0 0.0
2018-Jun-13 03:26N 47°07' W 002°25'0 0.0
2018-Jun-13 02:55N 47°07' W 002°25'0 0.1
2018-Jun-13 02:28N 47°07' W 002°25'0 0.0
2018-Jun-13 01:58N 47°07' W 002°25'0 0.0
2018-Jun-13 01:28N 47°07' W 002°25'0 0.1
2018-Jun-13 01:00N 47°07' W 002°25'4 8.7
2018-Jun-13 00:30N 47°03' W 002°28'612.7
2018-Jun-13 00:00N 47°00' W 002°37'611.1
2018-Jun-12 23:30N 47°00' W 002°45'611.9
2018-Jun-12 22:59N 47°03' W 002°53'612.1
2018-Jun-12 22:30N 47°05' W 003°01'612.1
2018-Jun-12 22:00N 47°08' W 003°09'611.9
2018-Jun-12 21:30N 47°11' W 003°17'611.6
2018-Jun-12 21:00N 47°13' W 003°24'611.7
2018-Jun-12 20:30N 47°15' W 003°32'611.9
2018-Jun-12 20:00N 47°18' W 003°40'612.1
2018-Jun-12 19:30N 47°21' W 003°48'611.9
2018-Jun-12 19:00N 47°24' W 003°55'611.9
2018-Jun-12 18:30N 47°26' W 004°04'612.3
2018-Jun-12 18:00N 47°28' W 004°12'1512.2
2018-Jun-12 16:44N 47°35' W 004°33'412.3
2018-Jun-12 16:24N 47°37' W 004°38'512.3
2018-Jun-12 16:00N 47°39' W 004°44'612.3
2018-Jun-12 15:30N 47°41' W 004°53'612.1
2018-Jun-12 15:00N 47°44' W 005°01'612.0
2018-Jun-12 14:30N 47°47' W 005°09'1011.5
2018-Jun-12 13:39N 47°53' W 005°21'211.3
2018-Jun-12 13:30N 47°54' W 005°22'510.4
2018-Jun-12 12:59N 47°59' W 005°26'610.8
2018-Jun-12 12:27N 48°04' W 005°30'1710.9
2018-Jun-12 10:53N 48°19' W 005°42'3610.5
2018-Jun-12 07:26N 48°55' W 005°43'712.9
2018-Jun-12 06:53N 48°59' W 005°34'712.5
2018-Jun-12 06:18N 49°02' W 005°24'311.2
2018-Jun-12 06:00N 49°04' W 005°19'510.0
2018-Jun-12 05:30N 49°07' W 005°13'7 9.8
2018-Jun-12 04:48N 49°10' W 005°04'412.0
2018-Jun-12 04:27N 49°12' W 004°58'5112.1
2018-Jun-12 00:13N 49°39' W 003°50'414.0
2018-Jun-11 23:54N 49°41' W 003°45'1114.3
2018-Jun-11 23:09N 49°47' W 003°31'214.5
2018-Jun-11 23:01N 49°48' W 003°28'714.6
2018-Jun-11 22:30N 49°52' W 003°18'714.3
2018-Jun-11 22:00N 49°55' W 003°09'813.7
2018-Jun-11 21:24N 49°59' W 002°57'513.0
2018-Jun-11 21:00N 50°01' W 002°50'712.5
2018-Jun-11 20:27N 50°03' W 002°39'811.8
2018-Jun-11 19:48N 50°05' W 002°28'311.3
2018-Jun-11 19:31N 50°06' W 002°23'510.7
2018-Jun-11 19:00N 50°07' W 002°15'510.3
2018-Jun-11 18:30N 50°08' W 002°07'5 9.9
2018-Jun-11 18:00N 50°10' W 001°60'5 9.7
2018-Jun-11 17:31N 50°11' W 001°52'510.0
2018-Jun-11 17:00N 50°12' W 001°45'510.5
2018-Jun-11 16:30N 50°14' W 001°37'611.2
2018-Jun-11 16:00N 50°15' W 001°28'611.9
2018-Jun-11 15:30N 50°17' W 001°20'612.8
2018-Jun-11 15:00N 50°19' W 001°10'713.8
2018-Jun-11 14:31N 50°20' W 000°60'715.0
2018-Jun-11 14:00N 50°22' W 000°48'714.9
2018-Jun-11 13:31N 50°24' W 000°37'815.1
2018-Jun-11 13:00N 50°26' W 000°25'714.8
2018-Jun-11 12:30N 50°28' W 000°14'714.5
2018-Jun-11 12:01N 50°30' W 000°03'714.5
2018-Jun-11 11:30N 50°32' E 000°08'714.2
2018-Jun-11 11:00N 50°34' E 000°18'713.8
2018-Jun-11 10:30N 50°36' E 000°29'713.1
2018-Jun-11 10:00N 50°39' E 000°38'612.8
2018-Jun-11 09:30N 50°42' E 000°46'612.3
2018-Jun-11 09:00N 50°46' E 000°54'612.2
2018-Jun-11 08:30N 50°50' E 001°02'712.1
2018-Jun-11 07:57N 50°54' E 001°10'612.4
2018-Jun-11 07:29N 50°58' E 001°17'612.9
2018-Jun-11 07:00N 51°02' E 001°24'714.2
2018-Jun-11 06:30N 51°06' E 001°33'714.8
2018-Jun-11 06:01N 51°11' E 001°42'815.3
2018-Jun-11 05:30N 51°17' E 001°50'715.0
2018-Jun-11 05:01N 51°23' E 001°57'611.3
2018-Jun-11 04:30N 51°24' E 002°06'1312.9
2018-Jun-11 03:30N 51°22' E 002°26'713.7
2018-Jun-11 03:00N 51°23' E 002°37'612.5
2018-Jun-11 02:30N 51°22' E 002°47'713.7
2018-Jun-11 02:00N 51°23' E 002°58'612.9
2018-Jun-11 01:30N 51°24' E 003°08'713.8
2018-Jun-11 01:00N 51°25' E 003°19'713.9
2018-Jun-11 00:30N 51°25' E 003°30'511.0
2018-Jun-11 00:00N 51°25' E 003°39'713.2
2018-Jun-10 23:30N 51°21' E 003°47'611.2
2018-Jun-10 23:00N 51°23' E 003°56'4 8.7
2018-Jun-10 22:30N 51°26' E 004°01'5 9.4
2018-Jun-10 22:00N 51°22' E 004°06'4 8.4
2018-Jun-10 21:30N 51°22' E 004°13'3 5.1
2018-Jun-10 20:53N 51°21' E 004°17'0 0.0
2018-Jun-10 20:30N 51°21' E 004°17'0 0.6
2018-Jun-10 20:00N 51°21' E 004°18'4 7.3
2018-Jun-10 19:30N 51°17' E 004°20'2 3.1
2018-Jun-10 18:59N 51°16' E 004°20'0 0.0
2018-Jun-10 18:26N 51°16' E 004°20'0 0.0
2018-Jun-10 17:56N 51°16' E 004°20'0 0.0
2018-Jun-10 17:29N 51°16' E 004°20'0 0.0
2018-Jun-09 16:32N 51°16' E 004°20'0 0.0
2018-Jun-09 16:30N 51°16' E 004°20'1 2.7
2018-Jun-09 16:00N 51°17' E 004°20'4 4.2
2018-Jun-09 15:01N 51°21' E 004°17'0 0.0
2018-Jun-09 14:31N 51°21' E 004°17'0 0.2
2018-Jun-09 14:00N 51°21' E 004°17'2 4.0
2018-Jun-09 13:31N 51°21' E 004°14'3 6.7
2018-Jun-09 13:00N 51°23' E 004°09'5 9.3
2018-Jun-09 12:30N 51°23' E 004°02'3 6.0
2018-Jun-09 12:00N 51°25' E 003°58'611.0
2018-Jun-09 11:30N 51°21' E 003°52'611.7
2018-Jun-09 11:00N 51°23' E 003°44'611.4
2018-Jun-09 10:30N 51°25' E 003°36'3 6.6
2018-Jun-09 10:00N 51°27' E 003°31'5 9.9
2018-Jun-09 09:30N 51°31' E 003°26'610.8
2018-Jun-09 09:00N 51°36' E 003°22'713.1
2018-Jun-09 08:29N 51°42' E 003°17'611.4
2018-Jun-09 08:00N 51°47' E 003°16'613.1
2018-Jun-09 07:30N 51°54' E 003°17'  
Track history (hours):
 
Tides and Currents Weather Stations Pressure Air Temp Water Temp Dewpoint Dewpoint Depression Visibility Wind Speed Wind Dir Waves Ship Positions

Js Chukar

Last reported at 2018-Jun-19 07:15 UTC. Time now 2018-Jun-19 14:00 UTC.
Position N 46°01' W 004°50'.

Length 100 m; draft 6.5 m.

Type: Ship. MMSI: 249362000.

Date/timePositionNaut miles runAvg speedWind from/ knotsBaromVisibWave heightAir tempDewpointWater temp
2018-Jun-19 07:15N 46°01' W 004°50'1311.7
2018-Jun-19 06:10N 46°08' W 004°35'311.7
2018-Jun-19 05:53N 46°09' W 004°31'411.4
2018-Jun-19 05:30N 46°12' W 004°26'611.4
2018-Jun-19 04:59N 46°15' W 004°19'611.4
2018-Jun-19 04:28N 46°19' W 004°12'511.2
2018-Jun-19 04:01N 46°22' W 004°06'611.3
2018-Jun-19 03:30N 46°25' W 003°59'611.4
2018-Jun-19 03:00N 46°28' W 003°52'611.4
2018-Jun-19 02:30N 46°31' W 003°45'611.7
2018-Jun-19 02:00N 46°35' W 003°39'611.6
2018-Jun-19 01:29N 46°38' W 003°31'611.8
2018-Jun-19 00:59N 46°41' W 003°23'612.4
2018-Jun-19 00:30N 46°44' W 003°16'612.4
2018-Jun-19 00:00N 46°48' W 003°09'612.4
2018-Jun-18 23:29N 46°51' W 003°01'612.7
2018-Jun-18 22:59N 46°55' W 002°53'712.4
2018-Jun-18 22:27N 46°58' W 002°45'512.3
2018-Jun-18 22:00N 47°01' W 002°39'611.8
2018-Jun-18 21:30N 47°03' W 002°31'611.6
2018-Jun-18 21:00N 47°06' W 002°23'510.8
2018-Jun-18 20:30N 47°10' W 002°18'612.3
2018-Jun-18 20:00N 47°15' W 002°13'7 0.2
2018-Jun-17 07:18N 47°18' W 002°04'0 0.0
2018-Jun-17 07:00N 47°18' W 002°04'3 5.0
2018-Jun-17 06:30N 47°18' W 002°08'510.9
2018-Jun-17 06:00N 47°15' W 002°14'612.7
2018-Jun-17 05:30N 47°09' W 002°19'4 8.1
2018-Jun-17 05:01N 47°07' W 002°24'2 3.5
2018-Jun-17 04:30N 47°07' W 002°27'0 0.0
2018-Jun-17 04:00N 47°07' W 002°27'0 0.0
2018-Jun-17 03:29N 47°07' W 002°27'0 0.0
2018-Jun-17 02:59N 47°07' W 002°27'0 0.0
2018-Jun-17 02:29N 47°07' W 002°27'0 0.1
2018-Jun-17 01:59N 47°07' W 002°27'0 0.0
2018-Jun-17 01:29N 47°07' W 002°27'0 0.1
2018-Jun-17 00:59N 47°07' W 002°27'0 0.2
2018-Jun-17 00:07N 47°07' W 002°27'0 0.1
2018-Jun-16 23:58N 47°07' W 002°27'0 0.1
2018-Jun-16 23:28N 47°07' W 002°27'0 0.1
2018-Jun-16 22:58N 47°07' W 002°27'0 0.0
2018-Jun-16 22:28N 47°07' W 002°27'0 0.0
2018-Jun-16 22:00N 47°07' W 002°27'0 0.2
2018-Jun-16 21:20N 47°07' W 002°27'0 0.0
2018-Jun-16 20:44N 47°07' W 002°27'0 0.0
2018-Jun-16 20:14N 47°07' W 002°27'0 0.0
2018-Jun-16 19:44N 47°07' W 002°27'0 0.1
2018-Jun-16 19:14N 47°07' W 002°27'0 0.0
2018-Jun-16 18:59N 47°07' W 002°27'0 0.1
2018-Jun-16 18:29N 47°07' W 002°27'0 0.1
2018-Jun-16 17:59N 47°07' W 002°27'0 0.0
2018-Jun-16 17:29N 47°07' W 002°27'0 0.0
2018-Jun-16 16:59N 47°07' W 002°27'0 0.0
2018-Jun-16 16:29N 47°07' W 002°27'0 0.0
2018-Jun-16 15:59N 47°07' W 002°27'0 0.0
2018-Jun-16 15:29N 47°07' W 002°27'0 0.1
2018-Jun-16 14:59N 47°07' W 002°27'0 0.0
2018-Jun-16 14:29N 47°07' W 002°27'0 0.0
2018-Jun-16 13:59N 47°07' W 002°27'0 0.0
2018-Jun-16 13:29N 47°07' W 002°27'0 0.1
2018-Jun-16 12:56N 47°07' W 002°27'0 0.1
2018-Jun-16 12:29N 47°07' W 002°27'0 0.1
2018-Jun-16 11:59N 47°07' W 002°27'0 0.1
2018-Jun-16 11:29N 47°07' W 002°27'0 0.0
2018-Jun-16 10:59N 47°07' W 002°27'0 0.0
2018-Jun-16 10:26N 47°07' W 002°27'0 0.0
2018-Jun-16 09:56N 47°07' W 002°27'0 0.1
2018-Jun-16 09:29N 47°07' W 002°27'0 0.0
2018-Jun-16 08:59N 47°07' W 002°27'0 0.1
2018-Jun-16 08:29N 47°07' W 002°27'0 0.0
2018-Jun-16 07:59N 47°07' W 002°27'0 0.1
2018-Jun-16 07:26N 47°07' W 002°27'2 5.6
2018-Jun-16 07:00N 47°08' W 002°24'510.5
2018-Jun-16 06:30N 47°11' W 002°18'713.3
2018-Jun-16 06:00N 47°16' W 002°11'5 9.4
2018-Jun-16 05:30N 47°18' W 002°05'1 1.8
2018-Jun-16 05:00N 47°18' W 002°04'0 0.0
2018-Jun-16 04:27N 47°18' W 002°04'0 0.0
2018-Jun-16 04:00N 47°18' W 002°04'0 0.0
2018-Jun-16 03:29N 47°18' W 002°04'0 0.0
2018-Jun-16 02:59N 47°18' W 002°04'0 0.0
2018-Jun-15 06:04N 47°18' W 002°04'0 0.0
2018-Jun-15 06:00N 47°18' W 002°04'0 0.9
2018-Jun-15 05:31N 47°18' W 002°05'4 7.8
2018-Jun-15 05:01N 47°17' W 002°10'611.5
2018-Jun-15 04:31N 47°13' W 002°16'511.0
2018-Jun-15 04:01N 47°08' W 002°20'2 4.1
2018-Jun-15 03:31N 47°08' W 002°23'2 3.0
2018-Jun-15 02:58N 47°07' W 002°25'0 0.1
2018-Jun-15 02:27N 47°07' W 002°25'0 0.1
2018-Jun-15 02:00N 47°07' W 002°25'0 0.0
2018-Jun-15 01:29N 47°07' W 002°25'0 0.0
2018-Jun-15 00:59N 47°07' W 002°25'0 0.0
2018-Jun-15 00:26N 47°07' W 002°25'0 0.0
2018-Jun-14 23:59N 47°07' W 002°25'0 0.0
2018-Jun-14 23:29N 47°07' W 002°25'0 0.0
2018-Jun-14 22:59N 47°07' W 002°25'0 0.2
2018-Jun-14 22:29N 47°07' W 002°25'0 0.1
2018-Jun-14 21:59N 47°07' W 002°25'0 0.0
2018-Jun-14 21:29N 47°07' W 002°25'0 0.0
2018-Jun-14 20:59N 47°07' W 002°25'0 0.0
2018-Jun-14 20:29N 47°07' W 002°25'0 0.0
2018-Jun-14 19:56N 47°07' W 002°25'0 0.1
2018-Jun-14 19:29N 47°07' W 002°25'0 0.0
2018-Jun-14 18:59N 47°07' W 002°25'0 0.0
2018-Jun-14 18:22N 47°07' W 002°25'0 0.1
2018-Jun-14 18:00N 47°07' W 002°25'0 0.0
2018-Jun-14 17:30N 47°07' W 002°25'0 0.1
2018-Jun-14 17:00N 47°07' W 002°25'0 0.0
2018-Jun-14 16:30N 47°07' W 002°25'0 0.0
2018-Jun-14 16:00N 47°07' W 002°25'0 0.0
2018-Jun-14 15:29N 47°07' W 002°25'0 0.0
2018-Jun-14 14:53N 47°07' W 002°25'0 0.0
2018-Jun-14 14:28N 47°07' W 002°25'0 0.0
2018-Jun-14 13:58N 47°07' W 002°25'0 0.0
2018-Jun-14 13:28N 47°07' W 002°25'0 0.0
2018-Jun-14 12:58N 47°07' W 002°25'0 0.0
2018-Jun-14 12:28N 47°07' W 002°25'0 0.0
2018-Jun-14 11:58N 47°07' W 002°25'0 0.0
2018-Jun-14 11:30N 47°07' W 002°25'0 0.0
2018-Jun-14 10:51N 47°07' W 002°25'0 0.0
2018-Jun-14 10:24N 47°07' W 002°25'0 0.2
2018-Jun-14 09:47N 47°07' W 002°25'0 0.1
2018-Jun-14 09:20N 47°07' W 002°25'0 0.1
2018-Jun-14 08:59N 47°07' W 002°25'0 0.0
2018-Jun-14 08:22N 47°07' W 002°25'0 0.0
2018-Jun-14 07:58N 47°07' W 002°25'0 0.0
2018-Jun-14 07:28N 47°07' W 002°25'0 0.0
2018-Jun-14 06:58N 47°07' W 002°25'0 0.0
2018-Jun-14 06:28N 47°07' W 002°25'0 0.1
2018-Jun-14 05:58N 47°07' W 002°25'0 0.1
2018-Jun-14 05:28N 47°07' W 002°25'0 0.1
2018-Jun-14 04:58N 47°07' W 002°25'0 0.0
2018-Jun-14 04:30N 47°07' W 002°25'0 0.1
2018-Jun-14 04:00N 47°07' W 002°25'0 0.0
2018-Jun-14 03:30N 47°07' W 002°25'0 0.0
2018-Jun-14 02:57N 47°07' W 002°25'0 0.0
2018-Jun-14 02:30N 47°07' W 002°25'0 0.0
2018-Jun-14 02:00N 47°07' W 002°25'0 0.0
2018-Jun-14 01:30N 47°07' W 002°25'0 0.0
2018-Jun-14 01:00N 47°07' W 002°25'0 0.0
2018-Jun-14 00:29N 47°07' W 002°25'0 0.0
2018-Jun-13 23:59N 47°07' W 002°25'0 0.0
2018-Jun-13 23:29N 47°07' W 002°25'0 0.0
2018-Jun-13 22:59N 47°07' W 002°25'0 0.0
2018-Jun-13 22:28N 47°07' W 002°25'0 0.0
2018-Jun-13 21:58N 47°07' W 002°25'0 0.2
2018-Jun-13 21:29N 47°07' W 002°25'0 0.0
2018-Jun-13 21:00N 47°07' W 002°25'0 0.0
2018-Jun-13 20:30N 47°07' W 002°25'0 0.0
2018-Jun-13 20:00N 47°07' W 002°25'0 0.0
2018-Jun-13 19:24N 47°07' W 002°25'0 0.0
2018-Jun-13 19:00N 47°07' W 002°25'0 0.1
2018-Jun-13 18:24N 47°07' W 002°25'0 0.1
2018-Jun-13 18:00N 47°07' W 002°25'0 0.0
2018-Jun-13 17:21N 47°07' W 002°25'0 0.0
2018-Jun-13 16:57N 47°07' W 002°25'0 0.0
2018-Jun-13 16:24N 47°07' W 002°25'0 0.0
2018-Jun-13 15:54N 47°07' W 002°25'0 0.0
2018-Jun-13 15:27N 47°07' W 002°25'0 0.0
2018-Jun-13 15:00N 47°07' W 002°25'0 0.0
2018-Jun-13 14:28N 47°07' W 002°25'0 0.0
2018-Jun-13 13:10N 47°07' W 002°25'0 0.0
2018-Jun-13 12:41N 47°07' W 002°25'0 0.0
2018-Jun-13 10:41N 47°07' W 002°25'0 0.0
2018-Jun-13 10:14N 47°07' W 002°25'0 0.1
2018-Jun-13 09:56N 47°07' W 002°25'0 0.1
2018-Jun-13 09:29N 47°07' W 002°25'0 0.1
2018-Jun-13 08:59N 47°07' W 002°25'0 0.0
2018-Jun-13 08:25N 47°07' W 002°25'0 0.0
2018-Jun-13 07:57N 47°07' W 002°25'0 0.0
2018-Jun-13 07:24N 47°07' W 002°25'0 0.0
2018-Jun-13 07:00N 47°07' W 002°25'0 0.0
2018-Jun-13 06:24N 47°07' W 002°25'0 0.0
2018-Jun-13 06:00N 47°07' W 002°25'0 0.0
2018-Jun-13 05:29N 47°07' W 002°25'0 0.0
2018-Jun-13 04:55N 47°07' W 002°25'0 0.0
2018-Jun-13 04:30N 47°07' W 002°25'0 0.0
2018-Jun-13 03:57N 47°07' W 002°25'0 0.0
2018-Jun-13 03:26N 47°07' W 002°25'0 0.0
2018-Jun-13 02:55N 47°07' W 002°25'0 0.1
2018-Jun-13 02:28N 47°07' W 002°25'0 0.0
2018-Jun-13 01:58N 47°07' W 002°25'0 0.0
2018-Jun-13 01:28N 47°07' W 002°25'0 0.1
2018-Jun-13 01:00N 47°07' W 002°25'4 8.7
2018-Jun-13 00:30N 47°03' W 002°28'612.7
2018-Jun-13 00:00N 47°00' W 002°37'611.1
2018-Jun-12 23:30N 47°00' W 002°45'611.9
2018-Jun-12 22:59N 47°03' W 002°53'612.1
2018-Jun-12 22:30N 47°05' W 003°01'612.1
2018-Jun-12 22:00N 47°08' W 003°09'611.9
2018-Jun-12 21:30N 47°11' W 003°17'611.6
2018-Jun-12 21:00N 47°13' W 003°24'611.7
2018-Jun-12 20:30N 47°15' W 003°32'611.9
2018-Jun-12 20:00N 47°18' W 003°40'612.1
2018-Jun-12 19:30N 47°21' W 003°48'611.9
2018-Jun-12 19:00N 47°24' W 003°55'611.9
2018-Jun-12 18:30N 47°26' W 004°04'612.3
2018-Jun-12 18:00N 47°28' W 004°12'1512.2
2018-Jun-12 16:44N 47°35' W 004°33'412.3
2018-Jun-12 16:24N 47°37' W 004°38'512.3
2018-Jun-12 16:00N 47°39' W 004°44'612.3
2018-Jun-12 15:30N 47°41' W 004°53'612.1
2018-Jun-12 15:00N 47°44' W 005°01'612.0
2018-Jun-12 14:30N 47°47' W 005°09'1011.5
2018-Jun-12 13:39N 47°53' W 005°21'211.3
2018-Jun-12 13:30N 47°54' W 005°22'510.4
2018-Jun-12 12:59N 47°59' W 005°26'610.8
2018-Jun-12 12:27N 48°04' W 005°30'1710.9
2018-Jun-12 10:53N 48°19' W 005°42'3610.5
2018-Jun-12 07:26N 48°55' W 005°43'712.9
2018-Jun-12 06:53N 48°59' W 005°34'712.5
2018-Jun-12 06:18N 49°02' W 005°24'311.2
2018-Jun-12 06:00N 49°04' W 005°19'510.0
2018-Jun-12 05:30N 49°07' W 005°13'7 9.8
2018-Jun-12 04:48N 49°10' W 005°04'412.0
2018-Jun-12 04:27N 49°12' W 004°58'5112.1
2018-Jun-12 00:13N 49°39' W 003°50'414.0
2018-Jun-11 23:54N 49°41' W 003°45'1114.3
2018-Jun-11 23:09N 49°47' W 003°31'214.5
2018-Jun-11 23:01N 49°48' W 003°28'714.6
2018-Jun-11 22:30N 49°52' W 003°18'714.3
2018-Jun-11 22:00N 49°55' W 003°09'813.7
2018-Jun-11 21:24N 49°59' W 002°57'513.0
2018-Jun-11 21:00N 50°01' W 002°50'712.5
2018-Jun-11 20:27N 50°03' W 002°39'811.8
2018-Jun-11 19:48N 50°05' W 002°28'311.3
2018-Jun-11 19:31N 50°06' W 002°23'510.7
2018-Jun-11 19:00N 50°07' W 002°15'510.3
2018-Jun-11 18:30N 50°08' W 002°07'5 9.9
2018-Jun-11 18:00N 50°10' W 001°60'5 9.7
2018-Jun-11 17:31N 50°11' W 001°52'510.0
2018-Jun-11 17:00N 50°12' W 001°45'510.5
2018-Jun-11 16:30N 50°14' W 001°37'611.2
2018-Jun-11 16:00N 50°15' W 001°28'611.9
2018-Jun-11 15:30N 50°17' W 001°20'612.8
2018-Jun-11 15:00N 50°19' W 001°10'713.8
2018-Jun-11 14:31N 50°20' W 000°60'715.0
2018-Jun-11 14:00N 50°22' W 000°48'714.9
2018-Jun-11 13:31N 50°24' W 000°37'815.1
2018-Jun-11 13:00N 50°26' W 000°25'714.8
2018-Jun-11 12:30N 50°28' W 000°14'714.5
2018-Jun-11 12:01N 50°30' W 000°03'714.5
2018-Jun-11 11:30N 50°32' E 000°08'714.2
2018-Jun-11 11:00N 50°34' E 000°18'713.8
2018-Jun-11 10:30N 50°36' E 000°29'713.1
2018-Jun-11 10:00N 50°39' E 000°38'612.8
2018-Jun-11 09:30N 50°42' E 000°46'612.3
2018-Jun-11 09:00N 50°46' E 000°54'612.2
2018-Jun-11 08:30N 50°50' E 001°02'712.1
2018-Jun-11 07:57N 50°54' E 001°10'612.4
2018-Jun-11 07:29N 50°58' E 001°17'612.9
2018-Jun-11 07:00N 51°02' E 001°24'714.2
2018-Jun-11 06:30N 51°06' E 001°33'714.8
2018-Jun-11 06:01N 51°11' E 001°42'815.3
2018-Jun-11 05:30N 51°17' E 001°50'715.0
2018-Jun-11 05:01N 51°23' E 001°57'611.3
2018-Jun-11 04:30N 51°24' E 002°06'1312.9
2018-Jun-11 03:30N 51°22' E 002°26'713.7
2018-Jun-11 03:00N 51°23' E 002°37'612.5
2018-Jun-11 02:30N 51°22' E 002°47'713.7
2018-Jun-11 02:00N 51°23' E 002°58'612.9
2018-Jun-11 01:30N 51°24' E 003°08'713.8
2018-Jun-11 01:00N 51°25' E 003°19'713.9
2018-Jun-11 00:30N 51°25' E 003°30'511.0
2018-Jun-11 00:00N 51°25' E 003°39'713.2
2018-Jun-10 23:30N 51°21' E 003°47'611.2
2018-Jun-10 23:00N 51°23' E 003°56'4 8.7
2018-Jun-10 22:30N 51°26' E 004°01'5 9.4
2018-Jun-10 22:00N 51°22' E 004°06'4 8.4
2018-Jun-10 21:30N 51°22' E 004°13'3 5.1
2018-Jun-10 20:53N 51°21' E 004°17'0 0.0
2018-Jun-10 20:30N 51°21' E 004°17'0 0.6
2018-Jun-10 20:00N 51°21' E 004°18'4 7.3
2018-Jun-10 19:30N 51°17' E 004°20'2 3.1
2018-Jun-10 18:59N 51°16' E 004°20'0 0.0
2018-Jun-10 18:26N 51°16' E 004°20'0 0.0
2018-Jun-10 17:56N 51°16' E 004°20'0 0.0
2018-Jun-10 17:29N 51°16' E 004°20'0 0.0
2018-Jun-09 16:32N 51°16' E 004°20'0 0.0
2018-Jun-09 16:30N 51°16' E 004°20'1 2.7
2018-Jun-09 16:00N 51°17' E 004°20'4 4.2
2018-Jun-09 15:01N 51°21' E 004°17'0 0.0
2018-Jun-09 14:31N 51°21' E 004°17'0 0.2
2018-Jun-09 14:00N 51°21' E 004°17'2 4.0
2018-Jun-09 13:31N 51°21' E 004°14'3 6.7
2018-Jun-09 13:00N 51°23' E 004°09'5 9.3
2018-Jun-09 12:30N 51°23' E 004°02'3 6.0
2018-Jun-09 12:00N 51°25' E 003°58'611.0
2018-Jun-09 11:30N 51°21' E 003°52'611.7
2018-Jun-09 11:00N 51°23' E 003°44'611.4
2018-Jun-09 10:30N 51°25' E 003°36'3 6.6
2018-Jun-09 10:00N 51°27' E 003°31'5 9.9
2018-Jun-09 09:30N 51°31' E 003°26'610.8
2018-Jun-09 09:00N 51°36' E 003°22'713.1
2018-Jun-09 08:29N 51°42' E 003°17'611.4
2018-Jun-09 08:00N 51°47' E 003°16'613.1
2018-Jun-09 07:30N 51°54' E 003°17'  

Dump ship's entire track history